Iron Gates, Missouri
Current Conditions -  °F | °C
As of 4:53 AM on Saturday 25 Oct 2014 (Local Time) from KJLN Reporting Station
Clear Clear  
Wind Chill: 63°   Ceiling: Unl
Heat Index: 63°   Visibility: 10mi
Dew Point: 59°   Wind: 10mph
Humidity: 87%   Direction: 210°SSW
Pressure: 30.06"   Gusts: NA
Location:  37.1074°N, 94.5218°W
Report Text: KJLN 250953Z AUTO 21009KT 10SM CLR 17/15 A3006 RMK AO2 SLP172 T01720150
Loading
Personal Weather Stations






























Interactive Weather Map
Tropical Storm Tracking
New forecast layout! Learn more

10-Day Weather Forecast

Advertisements
Track Severe Weather on mobile